Time;durP1;ratioP1;P1;durP2;ratioP2;P2;SDS_P1;SDS_P2;PMS_P1;PMS_P2;Temp;Humidity;BMP_temperature;BMP_pressure;BME280_temperature;BME280_humidity;BME280_pressure;Samples;Min_cycle;Max_cycle;Signal;HPM_P1;HPM_P2
2022/03/22 00:03:23;;;;;;;14.68;9.52;;;;;;;5.84;57.15;97310.50;10323229;28;97571;-63
2022/03/22 00:08:33;;;;;;;14.35;9.50;;;;;;;5.88;57.02;97318.94;10324692;28;100727;-64
2022/03/22 00:13:37;;;;;;;15.60;10.75;;;;;;;5.65;58.36;97321.13;10319680;28;97345;-63
2022/03/22 00:18:40;;;;;;;15.13;10.38;;;;;;;5.70;58.02;97320.84;10324972;28;98341;-63
2022/03/22 00:23:45;;;;;;;14.30;10.00;;;;;;;5.57;58.39;97330.28;10321620;28;100669;-63
2022/03/22 00:28:48;;;;;;;15.27;9.80;;;;;;;5.51;58.14;97331.47;10328028;28;97007;-64
2022/03/22 00:33:51;;;;;;;15.10;9.48;;;;;;;5.45;57.83;97326.66;10325803;28;97685;-65
2022/03/22 00:38:55;;;;;;;18.27;9.98;;;;;;;5.36;58.32;97329.75;10312343;28;97836;-63
2022/03/22 00:43:58;;;;;;;14.55;10.43;;;;;;;5.31;58.47;97328.28;10327656;28;97347;-63
2022/03/22 00:49:02;;;;;;;16.73;10.45;;;;;;;5.25;58.81;97326.06;10315687;28;98823;-64
2022/03/22 00:54:08;;;;;;;13.52;10.13;;;;;;;4.97;59.26;97329.34;10325961;28;97962;-64
2022/03/22 01:04:32;;;;;;;14.63;10.32;;;;;;;4.68;60.06;97320.63;10327702;28;97065;-63
2022/03/22 01:09:36;;;;;;;14.30;10.82;;;;;;;4.56;60.94;97319.56;10321490;28;98610;-65
2022/03/22 01:14:39;;;;;;;17.13;10.97;;;;;;;4.49;60.78;97319.06;10327975;28;98688;-63
2022/03/22 01:19:42;;;;;;;14.40;10.55;;;;;;;4.64;59.80;97321.72;10322793;28;96944;-63
2022/03/22 01:24:47;;;;;;;14.63;9.25;;;;;;;4.65;60.16;97313.88;10328917;28;98616;-64
2022/03/22 01:29:50;;;;;;;14.63;10.33;;;;;;;4.16;62.37;97317.38;10325771;28;97967;-63
2022/03/22 01:34:53;;;;;;;20.00;11.40;;;;;;;3.86;62.86;97319.78;10319472;28;96950;-63
2022/03/22 01:39:58;;;;;;;16.15;11.00;;;;;;;3.84;62.60;97313.88;10329072;28;96859;-63
2022/03/22 01:45:01;;;;;;;13.60;9.43;;;;;;;4.00;61.62;97311.31;10326054;28;97715;-63
2022/03/22 01:50:06;;;;;;;18.50;11.52;;;;;;;4.28;59.92;97309.84;10333743;28;96739;-63
2022/03/22 01:55:12;;;;;;;18.77;12.52;;;;;;;4.50;59.93;97312.94;10332896;28;99006;-64
2022/03/22 02:00:17;;;;;;;14.60;10.90;;;;;;;4.54;60.17;97317.06;10327092;28;100279;-64
2022/03/22 02:10:43;;;;;;;18.13;11.18;;;;;;;4.25;60.38;97310.03;10331166;28;97265;-63
2022/03/22 02:15:49;;;;;;;15.98;10.70;;;;;;;4.15;60.94;97305.34;10329631;28;97574;-63
2022/03/22 02:20:52;;;;;;;16.88;10.40;;;;;;;3.70;61.92;97312.00;10330429;28;98696;-63
2022/03/22 02:25:57;;;;;;;16.45;10.80;;;;;;;3.64;63.57;97299.41;10328956;28;96888;-63
2022/03/22 02:31:01;;;;;;;16.27;11.53;;;;;;;3.89;62.01;97300.72;10332118;28;98747;-63
2022/03/22 02:36:04;;;;;;;16.95;11.07;;;;;;;3.94;61.74;97311.66;10331069;28;98529;-63
2022/03/22 02:41:09;;;;;;;17.67;10.65;;;;;;;3.54;63.48;97314.53;10328596;28;98857;-63
2022/03/22 02:46:12;;;;;;;15.65;9.77;;;;;;;3.29;64.08;97314.91;10333541;28;96905;-64
2022/03/22 02:51:15;;;;;;;16.40;10.48;;;;;;;3.35;63.74;97319.78;10324095;28;97062;-63
2022/03/22 02:56:20;;;;;;;16.83;11.15;;;;;;;3.31;63.62;97309.69;10329506;28;97240;-64
2022/03/22 03:01:23;;;;;;;17.52;9.25;;;;;;;3.19;63.24;97309.41;10329848;28;98229;-63
2022/03/22 03:06:28;;;;;;;13.98;8.63;;;;;;;3.15;62.62;97305.28;10325511;28;98769;-64
2022/03/22 03:11:33;;;;;;;15.23;9.25;;;;;;;3.12;63.01;97310.59;10323013;28;97255;-63
2022/03/22 03:16:36;;;;;;;14.70;10.25;;;;;;;2.88;63.78;97318.63;10326265;28;98860;-63
2022/03/22 03:21:39;;;;;;;16.80;10.52;;;;;;;2.79;63.96;97316.50;10325382;28;98688;-63
2022/03/22 03:26:43;;;;;;;16.65;10.35;;;;;;;2.88;64.03;97323.78;10323989;28;97504;-63
2022/03/22 03:31:47;;;;;;;15.57;10.48;;;;;;;2.45;65.24;97317.25;10327303;28;98507;-63
2022/03/22 03:36:50;;;;;;;16.40;10.60;;;;;;;2.35;65.23;97311.66;10336105;28;97640;-63
2022/03/22 03:41:54;;;;;;;21.02;11.27;;;;;;;2.42;66.47;97317.38;10332640;28;98778;-63
2022/03/22 03:47:07;;;;;;;16.05;10.07;;;;;;;2.41;65.20;97315.72;10334030;28;97952;-64
2022/03/22 03:52:12;;;;;;;17.45;10.63;;;;;;;2.64;64.25;97322.38;10329817;28;97055;-63
2022/03/22 03:57:16;;;;;;;17.70;10.40;;;;;;;2.91;63.83;97320.25;10336752;28;97010;-63
2022/03/22 04:02:20;;;;;;;14.20;10.43;;;;;;;3.02;62.92;97315.38;10333071;28;97716;-63
2022/03/22 04:07:25;;;;;;;15.00;10.13;;;;;;;2.90;63.40;97323.72;10336657;28;96818;-64
2022/03/22 04:12:29;;;;;;;16.80;10.40;;;;;;;2.75;64.39;97330.44;10336484;28;96962;-64
2022/03/22 04:17:32;;;;;;;17.83;11.43;;;;;;;2.58;65.84;97328.66;10330387;28;98444;-63
2022/03/22 04:22:35;;;;;;;16.73;10.52;;;;;;;2.56;65.18;97334.78;10334420;28;97002;-65
2022/03/22 04:32:59;;;;;;;14.93;9.05;;;;;;;2.40;64.61;97325.19;10329235;28;98419;-64
2022/03/22 04:38:02;;;;;;;15.00;9.98;;;;;;;2.37;65.23;97329.63;10333111;28;98956;-63
2022/03/22 04:43:07;;;;;;;15.95;10.18;;;;;;;2.31;64.74;97320.44;10335143;28;97715;-63
2022/03/22 04:48:10;;;;;;;14.10;9.33;;;;;;;2.36;63.72;97328.81;10322741;28;96965;-64
2022/03/22 04:58:34;;;;;;;15.70;10.10;;;;;;;2.65;63.44;97339.50;10321271;28;98641;-64
2022/03/22 05:03:37;;;;;;;19.73;11.50;;;;;;;2.42;64.12;97343.16;10328667;28;97569;-63
2022/03/22 05:08:40;;;;;;;23.63;12.32;;;;;;;2.09;65.85;97349.78;10326480;28;96948;-63
2022/03/22 05:13:44;;;;;;;16.05;10.93;;;;;;;1.78;67.61;97347.69;10319018;28;96888;-63
2022/03/22 05:18:48;;;;;;;16.63;11.07;;;;;;;1.70;67.76;97349.78;10328444;28;98496;-63
2022/03/22 05:23:51;;;;;;;16.42;10.77;;;;;;;1.77;67.01;97351.19;10324006;28;98920;-63
2022/03/22 05:28:58;;;;;;;16.23;9.55;;;;;;;1.80;66.93;97353.63;10331718;28;96967;-63
2022/03/22 05:34:02;;;;;;;17.85;10.38;;;;;;;1.92;66.37;97354.81;10330379;28;97065;-63
2022/03/22 05:39:05;;;;;;;14.55;9.75;;;;;;;1.83;65.85;97350.91;10331615;28;97579;-63
2022/03/22 05:44:11;;;;;;;14.27;9.25;;;;;;;1.84;65.96;97362.91;10332020;28;96841;-64
2022/03/22 05:49:14;;;;;;;17.48;10.40;;;;;;;1.83;66.28;97368.13;10332419;28;96753;-63
2022/03/22 05:54:17;;;;;;;16.25;10.20;;;;;;;1.59;67.23;97372.56;10324648;28;96991;-63
2022/03/22 05:59:22;;;;;;;17.80;10.70;;;;;;;1.48;67.86;97386.72;10327819;28;97449;-63
2022/03/22 06:04:25;;;;;;;15.38;10.15;;;;;;;1.48;67.39;97386.72;10324875;28;97168;-63
2022/03/22 06:09:28;;;;;;;14.00;10.10;;;;;;;1.55;66.77;97384.75;10327399;28;97079;-63
2022/03/22 06:14:32;;;;;;;15.38;9.88;;;;;;;1.64;66.04;97386.09;10322393;28;96817;-64
2022/03/22 06:19:35;;;;;;;18.10;9.50;;;;;;;1.84;65.19;97386.09;10327548;28;97274;-64
2022/03/22 06:24:38;;;;;;;18.17;10.65;;;;;;;1.91;65.24;97392.66;10325660;28;96970;-63
2022/03/22 06:29:45;;;;;;;15.10;9.48;;;;;;;2.00;64.34;97408.63;10325197;28;101201;-63
2022/03/22 06:34:51;;;;;;;16.02;9.13;;;;;;;1.98;63.50;97402.72;10324415;28;98961;-63
2022/03/22 06:39:53;;;;;;;19.07;10.53;;;;;;;1.94;63.76;97405.41;10327461;28;97652;-63
2022/03/22 06:44:58;;;;;;;14.95;10.32;;;;;;;2.08;63.55;97407.38;10326766;28;96925;-64
2022/03/22 06:50:02;;;;;;;14.43;10.48;;;;;;;2.11;63.30;97406.41;10314239;28;97006;-64
2022/03/22 06:55:06;;;;;;;18.45;11.93;;;;;;;2.12;63.70;97418.41;10316010;28;98820;-64
2022/03/22 07:00:15;;;;;;;19.57;11.53;;;;;;;2.27;63.76;97420.31;10323671;28;97526;-64
2022/03/22 07:05:18;;;;;;;21.00;12.88;;;;;;;2.42;63.33;97430.84;10324298;28;98579;-63
2022/03/22 07:10:21;;;;;;;20.45;11.68;;;;;;;2.52;62.89;97421.81;10326442;28;97131;-63
2022/03/22 07:15:28;;;;;;;17.63;11.15;;;;;;;2.62;62.46;97433.38;10328862;28;98446;-63
2022/03/22 07:20:31;;;;;;;16.88;10.80;;;;;;;2.75;62.30;97422.50;10324511;28;98741;-64
2022/03/22 07:25:35;;;;;;;14.93;11.40;;;;;;;2.87;62.04;97430.53;10327193;28;98845;-64
2022/03/22 07:30:39;;;;;;;13.70;10.27;;;;;;;2.96;61.27;97429.28;10330101;28;97562;-64
2022/03/22 07:35:42;;;;;;;19.23;12.13;;;;;;;3.05;62.22;97436.56;10332405;28;98868;-63
2022/03/22 07:40:45;;;;;;;16.73;11.32;;;;;;;3.23;61.36;97444.34;10326153;28;97650;-63
2022/03/22 07:45:50;;;;;;;19.33;12.40;;;;;;;3.45;62.17;97452.75;10336364;28;97837;-63
2022/03/22 07:56:22;;;;;;;18.48;11.07;;;;;;;3.89;62.18;97461.00;10244904;28;97617;-63
2022/03/22 08:01:26;;;;;;;19.05;11.40;;;;;;;4.12;62.98;97465.00;10250989;28;96977;-63
2022/03/22 08:06:31;;;;;;;18.02;10.85;;;;;;;4.18;63.15;97462.94;10251997;28;97012;-63
2022/03/22 08:11:34;;;;;;;16.77;10.93;;;;;;;4.52;63.60;97468.97;10245249;28;97163;-63
2022/03/22 08:16:40;;;;;;;16.70;10.38;;;;;;;4.67;63.06;97461.31;10251177;28;97197;-63
2022/03/22 08:21:43;;;;;;;16.80;9.98;;;;;;;4.70;62.70;97456.00;10248139;28;97100;-64
2022/03/22 08:26:46;;;;;;;17.73;10.20;;;;;;;4.89;63.13;97451.50;10248081;28;98297;-63
2022/03/22 08:31:52;;;;;;;16.75;11.65;;;;;;;5.08;63.33;97458.25;10309667;28;96872;-63
2022/03/22 08:36:55;;;;;;;17.15;11.45;;;;;;;5.17;63.22;97450.00;10335349;28;96969;-64
2022/03/22 08:41:58;;;;;;;16.70;10.98;;;;;;;5.30;62.90;97450.97;10332334;28;97628;-63
2022/03/22 08:47:02;;;;;;;19.77;11.25;;;;;;;5.45;63.18;97449.28;10336114;28;97024;-63
2022/03/22 08:52:06;;;;;;;18.73;10.83;;;;;;;5.56;62.87;97453.84;10335720;28;96774;-63
2022/03/22 08:57:09;;;;;;;14.68;9.80;;;;;;;5.72;62.44;97454.66;10333789;28;96796;-64
2022/03/22 09:02:13;;;;;;;20.27;10.82;;;;;;;6.01;62.00;97451.31;10335518;28;97960;-64
2022/03/22 09:07:16;;;;;;;17.47;11.40;;;;;;;6.02;61.73;97456.41;10335668;28;97130;-64
2022/03/22 09:12:20;;;;;;;17.50;9.98;;;;;;;6.09;61.74;97452.53;10329952;28;97348;-63
2022/03/22 09:17:24;;;;;;;20.55;11.10;;;;;;;6.43;61.69;97447.94;10335882;28;96877;-63
2022/03/22 09:22:28;;;;;;;16.92;11.30;;;;;;;6.72;61.07;97434.94;10336116;28;96952;-64
2022/03/22 09:27:31;;;;;;;20.63;11.55;;;;;;;6.94;60.83;97442.25;10333988;28;96812;-64
2022/03/22 09:32:37;;;;;;;17.38;11.20;;;;;;;7.01;60.58;97433.16;10334737;28;96873;-64
2022/03/22 09:37:43;;;;;;;16.05;11.73;;;;;;;7.07;60.06;97425.91;10332636;28;98449;-64
2022/03/22 09:42:47;;;;;;;15.90;11.02;;;;;;;7.12;60.62;97426.47;10327817;28;98144;-64
2022/03/22 09:47:51;;;;;;;15.05;11.02;;;;;;;7.19;60.34;97419.94;10333226;28;97667;-64
2022/03/22 09:52:54;;;;;;;17.02;11.02;;;;;;;7.32;59.98;97414.78;10335146;28;96908;-65
2022/03/22 09:57:57;;;;;;;16.38;11.20;;;;;;;7.52;59.79;97403.94;10334174;28;97392;-64
2022/03/22 10:03:01;;;;;;;17.50;10.88;;;;;;;7.67;59.13;97401.28;10334795;28;97002;-64
2022/03/22 10:08:08;;;;;;;16.27;10.60;;;;;;;7.85;58.53;97401.81;10334347;28;97006;-64
2022/03/22 10:13:14;;;;;;;18.63;11.93;;;;;;;8.14;57.89;97394.66;10333046;28;97467;-64
2022/03/22 10:18:24;;;;;;;17.80;10.93;;;;;;;8.24;58.24;97387.88;10328829;28;97028;-64
2022/03/22 10:23:27;;;;;;;21.92;11.18;;;;;;;8.38;57.62;97388.69;10333791;28;97108;-64
2022/03/22 10:28:30;;;;;;;20.35;10.07;;;;;;;8.54;57.48;97392.75;10332680;28;96866;-64
2022/03/22 10:33:34;;;;;;;15.20;10.02;;;;;;;8.73;56.37;97384.47;10331681;28;101736;-64
2022/03/22 10:38:37;;;;;;;15.00;10.52;;;;;;;8.95;56.14;97377.75;10328388;28;97666;-64
2022/03/22 10:43:40;;;;;;;17.10;10.75;;;;;;;9.10;54.92;97371.41;10333522;28;97342;-64
2022/03/22 10:48:47;;;;;;;15.48;11.20;;;;;;;9.29;54.83;97360.47;10341526;28;96820;-64
2022/03/22 10:53:50;;;;;;;19.20;11.18;;;;;;;9.50;54.46;97361.69;10333961;28;96938;-64
2022/03/22 10:58:55;;;;;;;15.25;10.52;;;;;;;9.75;53.81;97356.31;10340623;28;96928;-64
2022/03/22 11:04:00;;;;;;;;;;;;;;;9.90;53.57;97353.47;10336351;28;96892;-64
2022/03/22 11:09:03;;;;;;;18.05;10.68;;;;;;;10.05;53.75;97347.09;10338525;28;96795;-64
2022/03/22 11:14:06;;;;;;;18.05;10.18;;;;;;;10.21;52.46;97342.34;10339436;28;97522;-64
2022/03/22 11:19:11;;;;;;;18.98;11.13;;;;;;;10.26;51.58;97341.16;10337464;28;96934;-64
2022/03/22 11:24:15;;;;;;;14.18;9.15;;;;;;;10.36;51.63;97329.06;10338566;28;97122;-64
2022/03/22 11:29:18;;;;;;;14.68;9.65;;;;;;;10.46;50.41;97330.00;10339626;28;97648;-64
2022/03/22 11:34:22;;;;;;;14.52;10.32;;;;;;;10.60;50.11;97327.13;10340219;28;97846;-64
2022/03/22 11:44:54;;;;;;;15.30;10.57;;;;;;;11.03;49.65;97322.84;10338084;28;98715;-64
2022/03/22 11:50:04;;;;;;;15.33;9.73;;;;;;;11.22;49.29;97316.97;10339118;28;96998;-64
2022/03/22 11:55:08;;;;;;;12.20;8.93;;;;;;;11.28;48.99;97305.19;10330569;28;96891;-64
2022/03/22 12:00:14;;;;;;;14.48;10.00;;;;;;;11.37;48.48;97304.47;10336587;28;96804;-64
2022/03/22 12:05:20;;;;;;;12.70;9.43;;;;;;;11.63;48.13;97304.09;10337990;28;96859;-64
2022/03/22 12:10:24;;;;;;;15.93;10.40;;;;;;;11.73;47.35;97297.94;10336748;28;97018;-64
2022/03/22 12:15:27;;;;;;;13.75;9.55;;;;;;;11.85;47.08;97297.84;10337585;28;96886;-64
2022/03/22 12:20:31;;;;;;;16.38;9.93;;;;;;;11.93;46.84;97290.19;10333643;28;96811;-64
2022/03/22 12:25:36;;;;;;;16.27;10.17;;;;;;;12.08;46.88;97281.03;10321911;28;96837;-64
2022/03/22 12:30:41;;;;;;;13.82;10.00;;;;;;;12.19;46.28;97277.47;10335715;28;97451;-64
2022/03/22 12:35:47;;;;;;;14.57;10.25;;;;;;;12.23;46.03;97275.44;10328613;28;96955;-65
2022/03/22 12:40:51;;;;;;;16.67;10.25;;;;;;;12.41;45.84;97267.78;10335075;28;97654;-65
2022/03/22 12:45:54;;;;;;;11.60;9.65;;;;;;;12.57;44.49;97252.34;10335049;28;97346;-64
2022/03/22 12:50:59;;;;;;;15.15;9.63;;;;;;;12.46;43.32;97252.47;10337043;28;96893;-65
2022/03/22 12:56:02;;;;;;;14.55;9.07;;;;;;;12.64;44.25;97242.16;10335128;28;97090;-64
2022/03/22 13:01:05;;;;;;;16.63;10.27;;;;;;;12.88;42.93;97234.72;10337015;28;97119;-65
2022/03/22 13:06:10;;;;;;;15.57;10.02;;;;;;;13.03;43.24;97236.94;10335864;28;96991;-64
2022/03/22 13:11:29;;;;;;;14.18;9.90;;;;;;;13.15;42.98;97235.03;10333943;28;96842;-65
2022/03/22 13:16:34;;;;;;;12.45;9.18;;;;;;;13.36;42.33;97222.59;10320448;28;96718;-64
2022/03/22 13:21:40;;;;;;;;;;;;;;;13.58;42.56;97217.97;10335804;28;96868;-64
2022/03/22 13:26:53;;;;;;;13.52;9.07;;;;;;;13.66;41.44;97212.84;10334865;28;97526;-65
2022/03/22 13:31:57;;;;;;;14.80;9.60;;;;;;;13.96;41.02;97203.03;10334943;28;96951;-65
2022/03/22 13:37:06;;;;;;;;;;;;;;;14.35;41.06;97198.44;10337473;28;97367;-64
2022/03/22 13:42:12;;;;;;;12.50;8.52;;;;;;;14.75;39.48;97201.63;10334671;28;96935;-64
2022/03/22 13:47:30;;;;;;;11.98;8.90;;;;;;;15.11;37.05;97199.81;10332733;28;96959;-65
2022/03/22 13:52:36;;;;;;;11.25;7.97;;;;;;;15.61;37.00;97192.25;10319373;28;96742;-65
2022/03/22 13:57:39;;;;;;;10.23;7.38;;;;;;;16.27;36.47;97177.56;10332610;28;96898;-65
2022/03/22 14:02:42;;;;;;;13.35;8.27;;;;;;;16.88;35.23;97177.38;10334367;28;97356;-65
2022/03/22 14:07:54;;;;;;;13.85;7.80;;;;;;;17.30;34.00;97166.63;10333693;28;96796;-65
2022/03/22 14:12:58;;;;;;;11.73;8.48;;;;;;;17.22;33.61;97153.44;10335077;28;96900;-65
2022/03/22 14:18:01;;;;;;;10.85;7.72;;;;;;;17.21;34.51;97159.69;10332509;28;97207;-65
2022/03/22 14:23:09;;;;;;;11.15;7.63;;;;;;;17.58;32.80;97153.03;10332350;28;96798;-65
2022/03/22 14:28:12;;;;;;;12.77;8.30;;;;;;;17.99;32.42;97144.97;10334374;28;96779;-65
2022/03/22 14:33:17;;;;;;;12.05;7.25;;;;;;;17.67;32.46;97152.00;10328787;28;97375;-65
2022/03/22 14:38:25;;;;;;;16.75;8.82;;;;;;;17.67;31.67;97148.56;10334022;28;97741;-65
2022/03/22 14:43:30;;;;;;;11.25;7.75;;;;;;;17.64;31.30;97141.78;10332988;28;97663;-65
2022/03/22 14:48:33;;;;;;;;;;;;;;;17.85;31.50;97137.78;10333085;28;96802;-65
2022/03/22 14:58:58;;;;;;;11.68;7.30;;;;;;;19.40;29.97;97127.09;10331526;28;96995;-65
2022/03/22 15:04:01;;;;;;;12.18;7.40;;;;;;;19.63;30.42;97127.84;10330256;28;97168;-65
2022/03/22 15:09:08;;;;;;;;;;;;;;;19.93;30.48;97122.53;10331324;28;98193;-65
2022/03/22 15:14:15;;;;;;;14.48;7.32;;;;;;;20.56;29.44;97117.53;10329992;28;98159;-65
2022/03/22 15:19:18;;;;;;;9.82;7.35;;;;;;;20.98;29.24;97109.78;10327051;28;98976;-65
2022/03/22 15:24:25;;;;;;;10.57;6.47;;;;;;;21.31;27.98;97106.50;10329921;28;97809;-65
2022/03/22 15:29:27;;;;;;;9.68;7.25;;;;;;;21.79;27.37;97095.97;10331313;28;98095;-65
2022/03/22 15:34:30;;;;;;;9.95;7.55;;;;;;;21.31;27.22;97095.88;10337143;28;96835;-65
2022/03/22 15:39:35;;;;;;;14.23;8.98;;;;;;;21.31;26.64;97099.38;10339197;28;96778;-66
2022/03/22 15:44:37;;;;;;;11.20;7.80;;;;;;;20.95;27.25;97096.88;10333003;28;96923;-65
2022/03/22 15:49:40;;;;;;;10.18;7.45;;;;;;;19.71;27.81;97091.63;10339240;28;96963;-65
2022/03/22 15:54:46;;;;;;;10.68;7.32;;;;;;;19.16;27.27;97089.28;10336512;28;99128;-66
2022/03/22 15:59:49;;;;;;;10.57;7.13;;;;;;;19.52;27.19;97085.91;10337901;28;96984;-65
2022/03/22 16:04:52;;;;;;;11.70;6.70;;;;;;;19.77;27.04;97090.91;10332404;28;96915;-65
2022/03/22 16:09:57;;;;;;;9.30;6.47;;;;;;;20.29;26.86;97084.59;10337885;28;97073;-65
2022/03/22 16:15:00;;;;;;;10.30;6.60;;;;;;;20.68;26.76;97080.66;10338207;28;100171;-65
2022/03/22 16:20:03;;;;;;;9.10;5.87;;;;;;;21.17;26.22;97075.56;10337687;28;97399;-65
2022/03/22 16:25:12;;;;;;;7.97;6.10;;;;;;;21.60;26.00;97067.44;10336617;28;97289;-65
2022/03/22 16:30:17;;;;;;;9.57;6.97;;;;;;;21.90;26.26;97080.47;10337182;28;96976;-66
2022/03/22 16:40:45;;;;;;;8.48;5.68;;;;;;;21.68;24.45;97080.59;10313282;28;97362;-65
2022/03/22 16:45:49;;;;;;;6.93;5.57;;;;;;;21.33;24.11;97091.22;10326600;28;97501;-66
2022/03/22 16:50:56;;;;;;;7.07;5.80;;;;;;;21.33;24.80;97096.53;10333919;28;96857;-65
2022/03/22 16:56:02;;;;;;;7.13;5.22;;;;;;;20.92;24.17;97090.09;10338398;28;98988;-66
2022/03/22 17:01:06;;;;;;;8.30;6.50;;;;;;;20.59;24.06;97094.28;10337048;28;97170;-65
2022/03/22 17:06:09;;;;;;;10.88;5.80;;;;;;;19.32;24.31;97098.06;10334123;28;96835;-65
2022/03/22 17:11:14;;;;;;;11.68;6.05;;;;;;;18.46;24.52;97101.75;10333379;28;97397;-64
2022/03/22 17:16:19;;;;;;;9.52;6.28;;;;;;;17.36;26.70;97099.91;10334715;28;97966;-68
2022/03/22 17:21:23;;;;;;;8.95;5.38;;;;;;;16.52;27.66;97104.59;10334928;28;97016;-67
2022/03/22 17:26:29;;;;;;;10.65;6.10;;;;;;;16.14;28.84;97106.84;10330535;28;97151;-67
2022/03/22 17:31:33;;;;;;;8.90;5.55;;;;;;;16.15;29.97;97108.47;10334355;28;97095;-67
2022/03/22 17:36:35;;;;;;;10.10;6.80;;;;;;;15.70;30.50;97114.94;10334551;28;98221;-66
2022/03/22 17:41:40;;;;;;;6.38;5.35;;;;;;;14.86;32.01;97116.41;10329184;28;96915;-67
2022/03/22 17:46:43;;;;;;;16.63;10.23;;;;;;;14.52;32.22;97119.72;10332130;28;96950;-68
2022/03/22 17:51:46;;;;;;;11.80;8.68;;;;;;;13.90;34.66;97125.66;10325146;28;96962;-66
2022/03/22 17:56:50;;;;;;;16.55;9.35;;;;;;;13.24;35.89;97124.00;10323587;28;98716;-66
2022/03/22 18:01:53;;;;;;;17.42;6.75;;;;;;;12.58;37.40;97128.22;10331360;28;96817;-66
2022/03/22 18:06:57;;;;;;;10.80;6.18;;;;;;;11.88;38.20;97135.28;10331541;28;96867;-66
2022/03/22 18:12:01;;;;;;;11.45;6.15;;;;;;;11.28;39.03;97133.38;10324441;28;98617;-66
2022/03/22 18:17:04;;;;;;;9.60;6.10;;;;;;;11.16;39.11;97129.19;10324665;28;97754;-66
2022/03/22 18:22:10;;;;;;;13.10;6.43;;;;;;;11.34;38.72;97143.34;10329676;28;96984;-67
2022/03/22 18:27:14;;;;;;;9.82;5.65;;;;;;;11.36;38.64;97151.06;10322174;28;98680;-66
2022/03/22 18:32:17;;;;;;;11.68;5.63;;;;;;;11.24;38.76;97142.44;10321761;28;97860;-66
2022/03/22 18:37:21;;;;;;;12.43;6.97;;;;;;;11.39;38.60;97149.97;10330084;28;96906;-66
2022/03/22 18:42:25;;;;;;;10.15;7.03;;;;;;;11.50;38.59;97153.34;10325338;28;98028;-66
2022/03/22 18:47:33;;;;;;;11.00;7.00;;;;;;;11.42;38.51;97154.97;10333891;28;96893;-67
2022/03/22 18:52:36;;;;;;;11.27;8.00;;;;;;;11.40;38.66;97149.00;10316053;28;97278;-66
2022/03/22 18:57:47;;;;;;;10.40;6.93;;;;;;;11.13;39.16;97158.19;10329735;28;97860;-66
2022/03/22 19:02:50;;;;;;;11.90;7.40;;;;;;;10.37;40.54;97153.09;10331291;28;98190;-66
2022/03/22 19:07:54;;;;;;;10.35;6.97;;;;;;;10.07;41.62;97169.44;10337026;28;97885;-66
2022/03/22 19:12:58;;;;;;;9.45;6.25;;;;;;;10.08;41.58;97169.31;10332251;28;96857;-66
2022/03/22 19:18:01;;;;;;;14.50;7.70;;;;;;;10.23;41.13;97167.25;10339652;28;99774;-66
2022/03/22 19:23:04;;;;;;;11.02;7.00;;;;;;;10.10;42.10;97171.81;10338029;28;96909;-66
2022/03/22 19:28:10;;;;;;;19.05;11.85;;;;;;;10.17;41.23;97168.59;10338030;28;96962;-66
2022/03/22 19:33:17;;;;;;;12.90;9.40;;;;;;;10.15;41.40;97170.50;10338768;28;96715;-65
2022/03/22 19:38:23;;;;;;;14.43;9.27;;;;;;;9.96;41.26;97184.19;10330428;28;96876;-65
2022/03/22 19:43:28;;;;;;;24.48;14.40;;;;;;;9.70;42.77;97188.81;10330041;28;97079;-65
2022/03/22 19:48:31;;;;;;;21.13;13.07;;;;;;;9.44;43.04;97196.03;10336911;28;97641;-65
2022/03/22 19:53:34;;;;;;;20.58;11.77;;;;;;;9.21;43.26;97184.69;10336128;28;97149;-65
2022/03/22 19:58:38;;;;;;;15.15;9.52;;;;;;;8.84;44.85;97192.66;10337132;28;96938;-65
2022/03/22 20:03:42;;;;;;;;;;;;;;;8.29;45.10;97197.50;10338857;28;96919;-65
2022/03/22 20:09:07;;;;;;;13.35;8.60;;;;;;;7.87;45.72;97200.44;10338748;28;97178;-65
2022/03/22 20:14:11;;;;;;;16.25;9.88;;;;;;;7.52;46.75;97195.09;10334522;28;97488;-65
2022/03/22 20:19:14;;;;;;;14.80;9.43;;;;;;;7.50;46.50;97200.38;10336177;28;97098;-65
2022/03/22 20:24:17;;;;;;;15.00;10.60;;;;;;;7.64;45.89;97203.81;10326802;28;98776;-65
2022/03/22 20:29:22;;;;;;;14.80;9.60;;;;;;;7.64;46.11;97209.03;10339224;28;97543;-65
2022/03/22 20:34:25;;;;;;;17.87;11.47;;;;;;;7.62;45.78;97211.72;10336243;28;97033;-65
2022/03/22 20:39:29;;;;;;;14.68;10.23;;;;;;;7.67;45.58;97211.41;10333981;28;97121;-65
2022/03/22 20:44:35;;;;;;;17.52;10.73;;;;;;;7.49;46.11;97218.69;10352431;28;96737;-65
2022/03/22 20:49:39;;;;;;;21.15;12.73;;;;;;;7.17;47.39;97224.31;10335023;28;96876;-65
2022/03/22 20:54:42;;;;;;;20.73;13.32;;;;;;;6.97;47.81;97230.81;10333142;28;98264;-65
2022/03/22 20:59:46;;;;;;;13.45;9.25;;;;;;;6.69;49.00;97226.56;10334624;28;96972;-65
2022/03/22 21:04:49;;;;;;;20.53;11.53;;;;;;;6.65;48.04;97224.16;10335129;28;97126;-65
2022/03/22 21:09:52;;;;;;;13.38;9.35;;;;;;;6.70;48.07;97226.47;10334473;28;97008;-65
2022/03/22 21:14:58;;;;;;;12.77;9.13;;;;;;;6.58;48.15;97237.63;10334907;28;97243;-64
2022/03/22 21:20:00;;;;;;;;;;;;;;;6.29;49.07;97232.53;10333570;28;97204;-64
2022/03/22 21:25:05;;;;;;;12.52;8.75;;;;;;;6.22;48.46;97234.66;10327304;28;97122;-65
2022/03/22 21:30:11;;;;;;;14.20;8.53;;;;;;;5.97;50.19;97232.78;10327742;28;97576;-65
2022/03/22 21:35:14;;;;;;;12.95;8.15;;;;;;;5.45;51.39;97230.75;10319258;28;96718;-64
2022/03/22 21:40:17;;;;;;;12.93;8.00;;;;;;;5.40;52.85;97232.78;10329899;28;97812;-64
2022/03/22 21:45:25;;;;;;;13.52;8.88;;;;;;;5.42;52.13;97236.94;10332727;28;98268;-64
2022/03/22 21:50:28;;;;;;;12.30;8.60;;;;;;;5.49;51.67;97229.66;10331532;28;96922;-65
2022/03/22 21:55:32;;;;;;;12.82;8.35;;;;;;;5.79;50.52;97239.09;10328082;28;96779;-65
2022/03/22 22:00:37;;;;;;;12.48;9.10;;;;;;;5.81;50.35;97234.63;10332162;28;96805;-64
2022/03/22 22:05:40;;;;;;;14.73;8.17;;;;;;;5.71;50.18;97242.16;10333513;28;101731;-65
2022/03/22 22:10:43;;;;;;;16.13;9.57;;;;;;;5.65;49.58;97233.00;10333320;28;97136;-64
2022/03/22 22:15:48;;;;;;;15.60;10.05;;;;;;;5.46;51.47;97238.44;10333075;28;96950;-64
2022/03/22 22:20:51;;;;;;;16.53;10.97;;;;;;;4.94;52.96;97231.97;10323672;28;96841;-64
2022/03/22 22:25:54;;;;;;;19.15;11.70;;;;;;;5.01;52.54;97236.78;10326083;28;96825;-64
2022/03/22 22:30:58;;;;;;;15.55;9.35;;;;;;;4.72;53.02;97236.72;10333482;28;97488;-64
2022/03/22 22:36:01;;;;;;;16.02;9.30;;;;;;;4.72;53.02;97242.72;10333752;28;97334;-64
2022/03/22 22:41:05;;;;;;;13.43;9.45;;;;;;;4.79;52.11;97247.56;10333208;28;97233;-64
2022/03/22 22:46:10;;;;;;;13.88;8.98;;;;;;;4.54;53.99;97239.41;10338450;28;97425;-64
2022/03/22 22:51:13;;;;;;;14.50;8.70;;;;;;;4.54;53.51;97246.31;10322441;28;96794;-64
2022/03/22 22:56:16;;;;;;;10.95;7.55;;;;;;;4.62;52.50;97241.56;10324141;28;97005;-64
2022/03/22 23:01:20;;;;;;;11.15;7.75;;;;;;;4.53;53.18;97242.91;10334800;28;96995;-64
2022/03/22 23:10:09;;;;;;;11.35;7.07;;;;;;;4.36;53.32;97235.25;10326065;28;97118;-64
2022/03/22 23:11:50;;;;;;;9.98;7.53;;;;;;;3.87;55.05;97232.75;10320120;28;98510;-65
2022/03/22 23:16:54;;;;;;;12.00;7.18;;;;;;;3.97;53.95;97233.94;10334503;28;97609;-64
2022/03/22 23:21:58;;;;;;;11.23;7.20;;;;;;;4.03;53.47;97231.00;10336719;28;97045;-63
2022/03/22 23:27:01;;;;;;;13.02;7.43;;;;;;;4.08;52.69;97225.59;10332300;28;98504;-64
2022/03/22 23:32:06;;;;;;;10.82;7.93;;;;;;;4.05;52.74;97226.59;10333617;28;97262;-64
2022/03/22 23:37:09;;;;;;;12.38;7.90;;;;;;;3.75;54.28;97235.06;10335203;28;98670;-64
2022/03/22 23:42:13;;;;;;;14.23;7.72;;;;;;;3.58;54.18;97235.94;10330512;28;97231;-64
2022/03/22 23:47:17;;;;;;;13.23;8.65;;;;;;;3.41;56.01;97234.25;10331772;28;97859;-64
2022/03/22 23:52:20;;;;;;;13.07;8.07;;;;;;;3.22;57.15;97242.09;10330727;28;96852;-64
2022/03/22 23:57:23;;;;;;;15.93;9.50;;;;;;;3.09;58.34;97240.22;10331175;28;98609;-64
